Etusivu
METAR-TAF:

METAR-TAF

Lentoasemat :

Recife, Pernambuco, Brasilia

Leveyspiiri: 08-08S, Pituuspiiri: 034-55W, korkeus merenpinnasta: 19 m

Tämänhetkinen sää

Tämä raportti tehtiin 41 minuuttia sitten, kello 20.00 UTC
Tuuli 13 kn etelästä/kaakosta
Lämpötila 25°C
Kosteus 69%
Ilmanpaine 1016 hPa
Näkyvyys 10 km tai enemmän
Hajanaisia pilviä 2500 ft:n korkeudessa

METAR: SBRF 192000Z 15013KT 9999 SCT025 25/19 Q1016

Aika: 17:41 (20:41 UTC)

Sääennuste

Tämä raportti tehtiin 5 tuntia ja 41 minuuttia sitten, kello 15.00 UTC
Ennuste voimassa 19. päivästä klo 18 UTC - 20. päivään klo 18 UTC
Tuuli 12 kn kaakosta
Näkyvyys: 8000 m
Hajanaisia pilviä 2200 ft:n korkeudessa

TAF: SBRF 191500Z 1918/2018 14012KT 8000 SCT022 TN24/2008Z TX28/2016Z RMK PEU

Säähavainnot ja -ennusteet yli 4000 lentoasemalta (METAR- ja TAF-raportit).

Käytössä olevat sääasemat on merkitty karttaan keltaisilla ja punaisilla pisteillä.

Aseta hiiri pisteen päälle nähdäksesi sääaseman nimen.

Klikkaa sitten nähdäksesi säähavainnot ja -ennusteet.

Kartan vaihtaminen: klikkaa mustalla rastilla varustettuja vihreitä pisteitä, niin voit zoomata sisään; viivalla varustettua vihreää pistettä, niin voit zoomata ulos tai vihreitä nuolia, niin pääset viereisille kartoille.


METAR-TAF: